EKPT-LPMA 17.12.2010 (LPMA 171500Z 23025G36KT FEW016CB 18/14 Q0989 )

Title

EKPT-LPMA 17.12.2010 (LPMA 171500Z 23025G36KT FEW016CB 18/14 Q0989 )

Description

Period

Statistics

  • 38 photos
  • 0 likes

Settings

Report album
Advertisement

Other albums by the author

Similar albums

Continue browsing

If you like the album…

Play slideshow Stop
TIPYou can also save changes by proceeding to the next photo or video and deleting them with the ESC key.
Add tags to your description (e.g. #wedding #travel) so more people will see the photo or video.
EKPT-LPMA 17.12.2010 (LPMA 171500Z 23025G36KT FEW016CB 18/14 Q0989 )
Comments Add